sensor_id;sensor_type;location;lat;lon;timestamp;P1;durP1;ratioP1;P2;durP2;ratioP2
65558;SDS011;52203;51.998;5.140;2023-08-12T00:00:00;15.00;;;6.28;;
65558;SDS011;52203;51.998;5.140;2023-08-12T00:02:42;12.70;;;5.68;;
65558;SDS011;52203;51.998;5.140;2023-08-12T00:05:08;14.48;;;6.85;;
65558;SDS011;52203;51.998;5.140;2023-08-12T00:07:37;12.98;;;7.32;;
65558;SDS011;52203;51.998;5.140;2023-08-12T00:10:07;12.82;;;6.93;;
65558;SDS011;52203;51.998;5.140;2023-08-12T00:12:34;14.60;;;7.10;;
65558;SDS011;52203;51.998;5.140;2023-08-12T00:15:01;13.10;;;6.63;;
65558;SDS011;52203;51.998;5.140;2023-08-12T00:17:28;13.55;;;7.25;;
65558;SDS011;52203;51.998;5.140;2023-08-12T00:19:53;11.23;;;6.68;;
65558;SDS011;52203;51.998;5.140;2023-08-12T00:22:19;17.05;;;7.18;;
65558;SDS011;52203;51.998;5.140;2023-08-12T00:24:45;15.10;;;6.68;;
65558;SDS011;52203;51.998;5.140;2023-08-12T00:27:10;13.35;;;7.05;;
65558;SDS011;52203;51.998;5.140;2023-08-12T00:29:36;11.93;;;6.80;;
65558;SDS011;52203;51.998;5.140;2023-08-12T00:32:02;13.90;;;6.95;;
65558;SDS011;52203;51.998;5.140;2023-08-12T00:34:28;12.20;;;6.45;;
65558;SDS011;52203;51.998;5.140;2023-08-12T00:36:53;11.30;;;7.07;;
65558;SDS011;52203;51.998;5.140;2023-08-12T00:39:19;13.70;;;7.03;;
65558;SDS011;52203;51.998;5.140;2023-08-12T00:41:44;15.13;;;6.72;;
65558;SDS011;52203;51.998;5.140;2023-08-12T00:44:10;12.30;;;6.70;;
65558;SDS011;52203;51.998;5.140;2023-08-12T00:46:36;13.40;;;7.00;;
65558;SDS011;52203;51.998;5.140;2023-08-12T00:49:04;15.30;;;7.28;;
65558;SDS011;52203;51.998;5.140;2023-08-12T00:51:29;14.70;;;7.38;;
65558;SDS011;52203;51.998;5.140;2023-08-12T00:53:56;13.63;;;7.15;;
65558;SDS011;52203;51.998;5.140;2023-08-12T00:56:23;13.50;;;6.70;;
65558;SDS011;52203;51.998;5.140;2023-08-12T00:58:50;12.40;;;6.45;;
65558;SDS011;52203;51.998;5.140;2023-08-12T01:01:17;14.15;;;6.82;;
65558;SDS011;52203;51.998;5.140;2023-08-12T01:03:43;14.82;;;6.50;;
65558;SDS011;52203;51.998;5.140;2023-08-12T01:06:08;11.98;;;7.07;;
65558;SDS011;52203;51.998;5.140;2023-08-12T01:08:34;13.13;;;6.80;;
65558;SDS011;52203;51.998;5.140;2023-08-12T01:16:47;13.07;;;7.20;;
65558;SDS011;52203;51.998;5.140;2023-08-12T01:22:02;13.85;;;7.00;;
65558;SDS011;52203;51.998;5.140;2023-08-12T01:24:38;17.90;;;7.65;;
65558;SDS011;52203;51.998;5.140;2023-08-12T01:27:05;14.25;;;8.00;;
65558;SDS011;52203;51.998;5.140;2023-08-12T01:29:32;13.60;;;7.28;;
65558;SDS011;52203;51.998;5.140;2023-08-12T01:37:07;11.18;;;6.43;;
65558;SDS011;52203;51.998;5.140;2023-08-12T01:39:36;14.15;;;6.50;;
65558;SDS011;52203;51.998;5.140;2023-08-12T01:42:03;11.45;;;6.28;;
65558;SDS011;52203;51.998;5.140;2023-08-12T01:44:30;13.23;;;7.07;;
65558;SDS011;52203;51.998;5.140;2023-08-12T01:46:55;14.27;;;6.70;;
65558;SDS011;52203;51.998;5.140;2023-08-12T01:49:21;13.40;;;6.88;;
65558;SDS011;52203;51.998;5.140;2023-08-12T01:51:48;12.27;;;6.78;;
65558;SDS011;52203;51.998;5.140;2023-08-12T01:54:13;17.15;;;7.53;;
65558;SDS011;52203;51.998;5.140;2023-08-12T01:56:39;16.25;;;6.82;;
65558;SDS011;52203;51.998;5.140;2023-08-12T01:59:05;10.90;;;5.97;;
65558;SDS011;52203;51.998;5.140;2023-08-12T02:01:30;16.60;;;7.50;;
65558;SDS011;52203;51.998;5.140;2023-08-12T02:03:56;13.68;;;7.70;;
65558;SDS011;52203;51.998;5.140;2023-08-12T02:06:21;14.07;;;7.55;;
65558;SDS011;52203;51.998;5.140;2023-08-12T02:08:47;18.92;;;8.20;;
65558;SDS011;52203;51.998;5.140;2023-08-12T02:11:12;14.82;;;8.68;;
65558;SDS011;52203;51.998;5.140;2023-08-12T02:13:38;15.50;;;9.05;;
65558;SDS011;52203;51.998;5.140;2023-08-12T02:16:03;19.50;;;10.27;;
65558;SDS011;52203;51.998;5.140;2023-08-12T02:18:29;14.10;;;8.32;;
65558;SDS011;52203;51.998;5.140;2023-08-12T02:20:54;16.88;;;8.27;;
65558;SDS011;52203;51.998;5.140;2023-08-12T02:23:20;15.25;;;8.63;;
65558;SDS011;52203;51.998;5.140;2023-08-12T02:25:46;16.58;;;9.40;;
65558;SDS011;52203;51.998;5.140;2023-08-12T02:28:12;15.73;;;8.50;;
65558;SDS011;52203;51.998;5.140;2023-08-12T02:30:37;17.00;;;8.68;;
65558;SDS011;52203;51.998;5.140;2023-08-12T02:33:03;17.63;;;8.88;;
65558;SDS011;52203;51.998;5.140;2023-08-12T02:35:28;19.40;;;9.02;;
65558;SDS011;52203;51.998;5.140;2023-08-12T02:37:54;17.60;;;8.60;;
65558;SDS011;52203;51.998;5.140;2023-08-12T02:40:19;17.48;;;9.40;;
65558;SDS011;52203;51.998;5.140;2023-08-12T02:42:45;19.30;;;9.05;;
65558;SDS011;52203;51.998;5.140;2023-08-12T02:45:11;18.25;;;9.00;;
65558;SDS011;52203;51.998;5.140;2023-08-12T02:47:36;18.05;;;9.40;;
65558;SDS011;52203;51.998;5.140;2023-08-12T02:50:02;21.55;;;10.77;;
65558;SDS011;52203;51.998;5.140;2023-08-12T02:52:28;17.92;;;9.65;;
65558;SDS011;52203;51.998;5.140;2023-08-12T02:54:53;19.35;;;10.40;;
65558;SDS011;52203;51.998;5.140;2023-08-12T02:57:21;17.63;;;9.85;;
65558;SDS011;52203;51.998;5.140;2023-08-12T02:59:47;18.65;;;9.68;;
65558;SDS011;52203;51.998;5.140;2023-08-12T03:02:12;17.10;;;10.07;;
65558;SDS011;52203;51.998;5.140;2023-08-12T03:04:38;17.95;;;9.20;;
65558;SDS011;52203;51.998;5.140;2023-08-12T03:07:03;21.60;;;10.10;;
65558;SDS011;52203;51.998;5.140;2023-08-12T03:09:29;17.88;;;9.48;;
65558;SDS011;52203;51.998;5.140;2023-08-12T03:11:55;19.10;;;10.27;;
65558;SDS011;52203;51.998;5.140;2023-08-12T03:14:20;18.58;;;10.48;;
65558;SDS011;52203;51.998;5.140;2023-08-12T03:16:46;17.92;;;11.25;;
65558;SDS011;52203;51.998;5.140;2023-08-12T03:19:11;18.08;;;10.40;;
65558;SDS011;52203;51.998;5.140;2023-08-12T03:21:37;18.05;;;9.93;;
65558;SDS011;52203;51.998;5.140;2023-08-12T03:24:02;19.67;;;11.38;;
65558;SDS011;52203;51.998;5.140;2023-08-12T03:26:28;16.38;;;10.05;;
65558;SDS011;52203;51.998;5.140;2023-08-12T03:28:54;19.08;;;11.57;;
65558;SDS011;52203;51.998;5.140;2023-08-12T03:31:19;20.73;;;10.65;;
65558;SDS011;52203;51.998;5.140;2023-08-12T03:33:45;17.15;;;10.55;;
65558;SDS011;52203;51.998;5.140;2023-08-12T03:36:10;19.15;;;10.00;;
65558;SDS011;52203;51.998;5.140;2023-08-12T03:38:36;20.42;;;10.70;;
65558;SDS011;52203;51.998;5.140;2023-08-12T03:41:02;17.02;;;10.35;;
65558;SDS011;52203;51.998;5.140;2023-08-12T03:43:28;21.70;;;9.90;;
65558;SDS011;52203;51.998;5.140;2023-08-12T03:45:54;17.67;;;9.75;;
65558;SDS011;52203;51.998;5.140;2023-08-12T03:48:19;18.25;;;9.82;;
65558;SDS011;52203;51.998;5.140;2023-08-12T03:50:45;20.15;;;9.88;;
65558;SDS011;52203;51.998;5.140;2023-08-12T03:53:12;18.65;;;10.30;;
65558;SDS011;52203;51.998;5.140;2023-08-12T03:55:37;20.13;;;10.25;;
65558;SDS011;52203;51.998;5.140;2023-08-12T03:58:04;19.10;;;9.63;;
65558;SDS011;52203;51.998;5.140;2023-08-12T04:00:30;20.17;;;10.65;;
65558;SDS011;52203;51.998;5.140;2023-08-12T04:02:56;19.05;;;9.57;;
65558;SDS011;52203;51.998;5.140;2023-08-12T04:05:21;16.17;;;10.55;;
65558;SDS011;52203;51.998;5.140;2023-08-12T04:07:47;17.95;;;10.35;;
65558;SDS011;52203;51.998;5.140;2023-08-12T04:10:13;17.08;;;10.32;;
65558;SDS011;52203;51.998;5.140;2023-08-12T04:12:39;21.13;;;10.18;;
65558;SDS011;52203;51.998;5.140;2023-08-12T04:15:05;18.25;;;9.85;;
65558;SDS011;52203;51.998;5.140;2023-08-12T04:17:31;17.08;;;9.93;;
65558;SDS011;52203;51.998;5.140;2023-08-12T04:19:57;22.73;;;10.45;;
65558;SDS011;52203;51.998;5.140;2023-08-12T04:22:23;19.63;;;10.35;;
65558;SDS011;52203;51.998;5.140;2023-08-12T04:24:49;19.85;;;10.18;;
65558;SDS011;52203;51.998;5.140;2023-08-12T04:27:14;18.48;;;9.70;;
65558;SDS011;52203;51.998;5.140;2023-08-12T04:29:41;17.48;;;9.98;;
65558;SDS011;52203;51.998;5.140;2023-08-12T04:32:07;19.15;;;11.05;;
65558;SDS011;52203;51.998;5.140;2023-08-12T04:34:32;19.58;;;10.38;;
65558;SDS011;52203;51.998;5.140;2023-08-12T04:36:58;19.08;;;10.43;;
65558;SDS011;52203;51.998;5.140;2023-08-12T04:39:24;17.92;;;9.45;;
65558;SDS011;52203;51.998;5.140;2023-08-12T04:41:50;16.17;;;9.60;;
65558;SDS011;52203;51.998;5.140;2023-08-12T04:44:16;19.52;;;9.98;;
65558;SDS011;52203;51.998;5.140;2023-08-12T04:46:41;17.33;;;9.73;;
65558;SDS011;52203;51.998;5.140;2023-08-12T04:49:07;18.90;;;10.27;;
65558;SDS011;52203;51.998;5.140;2023-08-12T04:51:33;19.45;;;10.43;;
65558;SDS011;52203;51.998;5.140;2023-08-12T04:53:59;17.63;;;10.23;;
65558;SDS011;52203;51.998;5.140;2023-08-12T04:56:26;18.45;;;10.05;;
65558;SDS011;52203;51.998;5.140;2023-08-12T04:58:54;18.75;;;10.82;;
65558;SDS011;52203;51.998;5.140;2023-08-12T05:01:20;17.48;;;10.60;;
65558;SDS011;52203;51.998;5.140;2023-08-12T05:03:45;18.55;;;10.25;;
65558;SDS011;52203;51.998;5.140;2023-08-12T05:06:11;17.25;;;9.80;;
65558;SDS011;52203;51.998;5.140;2023-08-12T05:08:36;18.25;;;11.07;;
65558;SDS011;52203;51.998;5.140;2023-08-12T05:11:02;21.50;;;10.68;;
65558;SDS011;52203;51.998;5.140;2023-08-12T05:13:28;18.33;;;10.23;;
65558;SDS011;52203;51.998;5.140;2023-08-12T05:15:54;19.10;;;10.75;;
65558;SDS011;52203;51.998;5.140;2023-08-12T05:18:21;17.85;;;10.30;;
65558;SDS011;52203;51.998;5.140;2023-08-12T05:20:48;17.75;;;9.75;;
65558;SDS011;52203;51.998;5.140;2023-08-12T05:23:16;19.52;;;10.50;;
65558;SDS011;52203;51.998;5.140;2023-08-12T05:25:41;19.48;;;9.95;;
65558;SDS011;52203;51.998;5.140;2023-08-12T05:28:07;16.92;;;9.50;;
65558;SDS011;52203;51.998;5.140;2023-08-12T05:30:33;16.05;;;9.63;;
65558;SDS011;52203;51.998;5.140;2023-08-12T05:32:59;21.08;;;11.55;;
65558;SDS011;52203;51.998;5.140;2023-08-12T05:35:24;22.90;;;9.88;;
65558;SDS011;52203;51.998;5.140;2023-08-12T05:37:50;20.40;;;10.65;;
65558;SDS011;52203;51.998;5.140;2023-08-12T05:40:16;17.67;;;9.95;;
65558;SDS011;52203;51.998;5.140;2023-08-12T05:42:41;17.05;;;9.63;;
65558;SDS011;52203;51.998;5.140;2023-08-12T05:45:07;15.95;;;9.18;;
65558;SDS011;52203;51.998;5.140;2023-08-12T05:47:33;17.95;;;9.88;;
65558;SDS011;52203;51.998;5.140;2023-08-12T05:49:58;18.48;;;9.90;;
65558;SDS011;52203;51.998;5.140;2023-08-12T05:52:24;16.85;;;9.63;;
65558;SDS011;52203;51.998;5.140;2023-08-12T05:54:50;18.27;;;9.57;;
65558;SDS011;52203;51.998;5.140;2023-08-12T05:57:15;17.92;;;9.50;;
65558;SDS011;52203;51.998;5.140;2023-08-12T05:59:41;17.60;;;9.13;;
65558;SDS011;52203;51.998;5.140;2023-08-12T06:02:06;18.50;;;10.07;;
65558;SDS011;52203;51.998;5.140;2023-08-12T06:04:32;17.02;;;8.32;;
65558;SDS011;52203;51.998;5.140;2023-08-12T06:06:58;15.73;;;9.20;;
65558;SDS011;52203;51.998;5.140;2023-08-12T06:09:23;14.43;;;8.73;;
65558;SDS011;52203;51.998;5.140;2023-08-12T06:11:49;13.82;;;8.93;;
65558;SDS011;52203;51.998;5.140;2023-08-12T06:14:14;16.60;;;8.90;;
65558;SDS011;52203;51.998;5.140;2023-08-12T06:16:40;14.60;;;8.18;;
65558;SDS011;52203;51.998;5.140;2023-08-12T06:19:05;17.00;;;8.18;;
65558;SDS011;52203;51.998;5.140;2023-08-12T06:21:31;17.05;;;8.30;;
65558;SDS011;52203;51.998;5.140;2023-08-12T06:23:57;14.45;;;7.82;;
65558;SDS011;52203;51.998;5.140;2023-08-12T06:26:22;14.98;;;7.57;;
65558;SDS011;52203;51.998;5.140;2023-08-12T06:28:48;12.68;;;7.32;;
65558;SDS011;52203;51.998;5.140;2023-08-12T06:31:14;12.57;;;6.75;;
65558;SDS011;52203;51.998;5.140;2023-08-12T06:33:39;10.82;;;5.93;;
65558;SDS011;52203;51.998;5.140;2023-08-12T06:36:05;14.63;;;6.43;;
65558;SDS011;52203;51.998;5.140;2023-08-12T06:38:31;10.38;;;5.75;;
65558;SDS011;52203;51.998;5.140;2023-08-12T06:40:57;9.93;;;5.68;;
65558;SDS011;52203;51.998;5.140;2023-08-12T06:43:22;10.23;;;5.70;;
65558;SDS011;52203;51.998;5.140;2023-08-12T06:45:48;8.75;;;5.43;;
65558;SDS011;52203;51.998;5.140;2023-08-12T06:48:15;11.30;;;5.85;;
65558;SDS011;52203;51.998;5.140;2023-08-12T06:50:41;10.95;;;6.00;;
65558;SDS011;52203;51.998;5.140;2023-08-12T06:53:06;10.90;;;5.68;;
65558;SDS011;52203;51.998;5.140;2023-08-12T06:55:32;13.57;;;6.13;;
65558;SDS011;52203;51.998;5.140;2023-08-12T06:57:58;8.07;;;5.95;;
65558;SDS011;52203;51.998;5.140;2023-08-12T07:00:25;9.63;;;5.68;;
65558;SDS011;52203;51.998;5.140;2023-08-12T07:02:50;10.43;;;5.18;;
65558;SDS011;52203;51.998;5.140;2023-08-12T07:05:16;9.73;;;5.60;;
65558;SDS011;52203;51.998;5.140;2023-08-12T07:07:41;9.90;;;5.57;;
65558;SDS011;52203;51.998;5.140;2023-08-12T07:10:07;10.27;;;5.55;;
65558;SDS011;52203;51.998;5.140;2023-08-12T07:12:33;7.20;;;5.00;;
65558;SDS011;52203;51.998;5.140;2023-08-12T07:15:00;13.32;;;5.72;;
65558;SDS011;52203;51.998;5.140;2023-08-12T07:17:25;9.65;;;6.07;;
65558;SDS011;52203;51.998;5.140;2023-08-12T07:19:51;8.82;;;5.07;;
65558;SDS011;52203;51.998;5.140;2023-08-12T07:22:16;10.32;;;5.75;;
65558;SDS011;52203;51.998;5.140;2023-08-12T07:24:44;10.02;;;6.03;;
65558;SDS011;52203;51.998;5.140;2023-08-12T07:27:10;9.85;;;5.85;;
65558;SDS011;52203;51.998;5.140;2023-08-12T07:29:35;8.25;;;5.47;;
65558;SDS011;52203;51.998;5.140;2023-08-12T07:32:01;8.15;;;5.43;;
65558;SDS011;52203;51.998;5.140;2023-08-12T07:34:27;8.35;;;5.03;;
65558;SDS011;52203;51.998;5.140;2023-08-12T07:36:52;9.18;;;5.53;;
65558;SDS011;52203;51.998;5.140;2023-08-12T07:39:18;10.77;;;6.22;;
65558;SDS011;52203;51.998;5.140;2023-08-12T07:41:43;8.20;;;5.38;;
65558;SDS011;52203;51.998;5.140;2023-08-12T07:44:09;6.72;;;4.18;;
65558;SDS011;52203;51.998;5.140;2023-08-12T07:46:34;5.90;;;3.58;;
65558;SDS011;52203;51.998;5.140;2023-08-12T07:49:01;7.00;;;4.20;;
65558;SDS011;52203;51.998;5.140;2023-08-12T07:51:26;4.18;;;3.22;;
65558;SDS011;52203;51.998;5.140;2023-08-12T07:53:52;6.88;;;3.20;;
65558;SDS011;52203;51.998;5.140;2023-08-12T07:56:18;5.07;;;3.17;;
65558;SDS011;52203;51.998;5.140;2023-08-12T07:58:43;4.55;;;2.92;;
65558;SDS011;52203;51.998;5.140;2023-08-12T08:01:10;5.18;;;3.10;;
65558;SDS011;52203;51.998;5.140;2023-08-12T08:03:36;5.07;;;2.95;;
65558;SDS011;52203;51.998;5.140;2023-08-12T08:06:02;5.38;;;3.15;;
65558;SDS011;52203;51.998;5.140;2023-08-12T08:08:27;5.00;;;2.70;;
65558;SDS011;52203;51.998;5.140;2023-08-12T08:10:54;4.35;;;2.50;;
65558;SDS011;52203;51.998;5.140;2023-08-12T08:13:20;3.97;;;2.72;;
65558;SDS011;52203;51.998;5.140;2023-08-12T08:15:46;4.25;;;2.90;;
65558;SDS011;52203;51.998;5.140;2023-08-12T08:18:11;3.50;;;2.38;;
65558;SDS011;52203;51.998;5.140;2023-08-12T08:20:37;4.05;;;2.28;;
65558;SDS011;52203;51.998;5.140;2023-08-12T08:23:03;3.45;;;1.75;;
65558;SDS011;52203;51.998;5.140;2023-08-12T08:25:29;2.90;;;1.80;;
65558;SDS011;52203;51.998;5.140;2023-08-12T08:27:54;2.80;;;1.63;;
65558;SDS011;52203;51.998;5.140;2023-08-12T08:30:20;2.50;;;1.60;;
65558;SDS011;52203;51.998;5.140;2023-08-12T08:32:47;2.33;;;1.30;;
65558;SDS011;52203;51.998;5.140;2023-08-12T08:35:13;5.57;;;1.55;;
65558;SDS011;52203;51.998;5.140;2023-08-12T08:37:40;4.63;;;1.92;;
65558;SDS011;52203;51.998;5.140;2023-08-12T08:40:06;5.57;;;1.85;;
65558;SDS011;52203;51.998;5.140;2023-08-12T08:42:33;6.35;;;2.05;;
65558;SDS011;52203;51.998;5.140;2023-08-12T08:45:00;6.28;;;1.67;;
65558;SDS011;52203;51.998;5.140;2023-08-12T08:47:29;5.82;;;1.88;;
65558;SDS011;52203;51.998;5.140;2023-08-12T08:49:56;5.63;;;1.70;;
65558;SDS011;52203;51.998;5.140;2023-08-12T08:52:25;7.97;;;2.00;;
65558;SDS011;52203;51.998;5.140;2023-08-12T08:54:51;4.70;;;1.95;;
65558;SDS011;52203;51.998;5.140;2023-08-12T08:57:17;6.40;;;2.08;;
65558;SDS011;52203;51.998;5.140;2023-08-12T08:59:44;5.28;;;2.05;;
65558;SDS011;52203;51.998;5.140;2023-08-12T09:02:12;5.13;;;2.42;;
65558;SDS011;52203;51.998;5.140;2023-08-12T09:04:41;4.53;;;2.10;;
65558;SDS011;52203;51.998;5.140;2023-08-12T09:07:08;7.50;;;2.30;;
65558;SDS011;52203;51.998;5.140;2023-08-12T09:09:35;6.38;;;2.20;;
65558;SDS011;52203;51.998;5.140;2023-08-12T09:12:01;5.57;;;1.85;;
65558;SDS011;52203;51.998;5.140;2023-08-12T09:14:27;3.40;;;1.52;;
65558;SDS011;52203;51.998;5.140;2023-08-12T09:16:54;6.60;;;2.10;;
65558;SDS011;52203;51.998;5.140;2023-08-12T09:19:21;6.18;;;2.40;;
65558;SDS011;52203;51.998;5.140;2023-08-12T09:21:51;7.13;;;2.33;;
65558;SDS011;52203;51.998;5.140;2023-08-12T09:24:23;5.50;;;2.20;;
65558;SDS011;52203;51.998;5.140;2023-08-12T09:26:52;6.07;;;2.20;;
65558;SDS011;52203;51.998;5.140;2023-08-12T09:29:22;5.72;;;2.38;;
65558;SDS011;52203;51.998;5.140;2023-08-12T09:31:49;6.90;;;1.90;;
65558;SDS011;52203;51.998;5.140;2023-08-12T09:34:15;4.95;;;1.88;;
65558;SDS011;52203;51.998;5.140;2023-08-12T09:36:43;6.75;;;2.47;;
65558;SDS011;52203;51.998;5.140;2023-08-12T09:39:09;5.15;;;2.00;;
65558;SDS011;52203;51.998;5.140;2023-08-12T09:41:34;4.40;;;2.10;;
65558;SDS011;52203;51.998;5.140;2023-08-12T09:44:01;5.95;;;1.92;;
65558;SDS011;52203;51.998;5.140;2023-08-12T09:46:28;3.85;;;2.13;;
65558;SDS011;52203;51.998;5.140;2023-08-12T09:48:53;6.30;;;2.05;;
65558;SDS011;52203;51.998;5.140;2023-08-12T09:51:19;4.20;;;2.00;;
65558;SDS011;52203;51.998;5.140;2023-08-12T09:53:48;6.82;;;2.00;;
65558;SDS011;52203;51.998;5.140;2023-08-12T09:56:14;3.65;;;1.73;;
65558;SDS011;52203;51.998;5.140;2023-08-12T09:58:44;5.57;;;1.92;;
65558;SDS011;52203;51.998;5.140;2023-08-12T10:01:13;4.35;;;1.70;;
65558;SDS011;52203;51.998;5.140;2023-08-12T10:03:39;7.90;;;2.50;;
65558;SDS011;52203;51.998;5.140;2023-08-12T10:06:06;5.15;;;2.13;;
65558;SDS011;52203;51.998;5.140;2023-08-12T10:08:32;7.00;;;2.20;;
65558;SDS011;52203;51.998;5.140;2023-08-12T10:11:00;6.50;;;1.80;;
65558;SDS011;52203;51.998;5.140;2023-08-12T10:13:26;5.65;;;2.20;;
65558;SDS011;52203;51.998;5.140;2023-08-12T10:15:53;5.35;;;1.67;;
65558;SDS011;52203;51.998;5.140;2023-08-12T10:18:19;3.63;;;1.77;;
65558;SDS011;52203;51.998;5.140;2023-08-12T10:20:47;4.38;;;1.70;;
65558;SDS011;52203;51.998;5.140;2023-08-12T10:23:16;4.13;;;1.73;;
65558;SDS011;52203;51.998;5.140;2023-08-12T10:25:45;6.40;;;1.50;;
65558;SDS011;52203;51.998;5.140;2023-08-12T10:28:14;5.90;;;1.35;;
65558;SDS011;52203;51.998;5.140;2023-08-12T10:30:40;5.05;;;1.90;;
65558;SDS011;52203;51.998;5.140;2023-08-12T10:33:07;4.90;;;1.50;;
65558;SDS011;52203;51.998;5.140;2023-08-12T10:35:43;5.40;;;1.77;;
65558;SDS011;52203;51.998;5.140;2023-08-12T10:38:11;4.53;;;1.42;;
65558;SDS011;52203;51.998;5.140;2023-08-12T10:40:38;6.28;;;2.50;;
65558;SDS011;52203;51.998;5.140;2023-08-12T10:43:04;4.90;;;1.55;;
65558;SDS011;52203;51.998;5.140;2023-08-12T10:48:18;6.18;;;1.73;;
65558;SDS011;52203;51.998;5.140;2023-08-12T10:50:53;5.88;;;1.63;;
65558;SDS011;52203;51.998;5.140;2023-08-12T10:53:23;6.35;;;1.63;;
65558;SDS011;52203;51.998;5.140;2023-08-12T10:55:58;6.20;;;1.75;;
65558;SDS011;52203;51.998;5.140;2023-08-12T10:58:41;6.18;;;1.83;;
65558;SDS011;52203;51.998;5.140;2023-08-12T11:01:11;4.65;;;1.60;;
65558;SDS011;52203;51.998;5.140;2023-08-12T11:03:44;7.00;;;2.05;;
65558;SDS011;52203;51.998;5.140;2023-08-12T11:06:10;4.80;;;1.48;;
65558;SDS011;52203;51.998;5.140;2023-08-12T11:08:36;4.05;;;1.60;;
65558;SDS011;52203;51.998;5.140;2023-08-12T11:11:02;5.35;;;1.50;;
65558;SDS011;52203;51.998;5.140;2023-08-12T11:13:27;5.40;;;1.60;;
65558;SDS011;52203;51.998;5.140;2023-08-12T11:15:54;6.95;;;1.67;;
65558;SDS011;52203;51.998;5.140;2023-08-12T11:18:31;7.20;;;1.85;;
65558;SDS011;52203;51.998;5.140;2023-08-12T11:20:57;4.68;;;1.52;;
65558;SDS011;52203;51.998;5.140;2023-08-12T11:23:23;7.93;;;1.50;;
65558;SDS011;52203;51.998;5.140;2023-08-12T11:25:49;5.43;;;1.77;;
65558;SDS011;52203;51.998;5.140;2023-08-12T11:28:15;5.60;;;2.03;;
65558;SDS011;52203;51.998;5.140;2023-08-12T11:30:42;4.28;;;1.75;;
65558;SDS011;52203;51.998;5.140;2023-08-12T11:33:08;3.85;;;1.50;;
65558;SDS011;52203;51.998;5.140;2023-08-12T11:35:34;5.85;;;2.00;;
65558;SDS011;52203;51.998;5.140;2023-08-12T11:37:59;6.07;;;1.70;;
65558;SDS011;52203;51.998;5.140;2023-08-12T11:40:26;7.40;;;2.00;;
65558;SDS011;52203;51.998;5.140;2023-08-12T11:42:53;7.25;;;1.60;;
65558;SDS011;52203;51.998;5.140;2023-08-12T11:45:23;6.55;;;1.70;;
65558;SDS011;52203;51.998;5.140;2023-08-12T11:47:49;5.88;;;1.75;;
65558;SDS011;52203;51.998;5.140;2023-08-12T11:50:20;7.80;;;1.98;;
65558;SDS011;52203;51.998;5.140;2023-08-12T11:52:47;5.13;;;1.80;;
65558;SDS011;52203;51.998;5.140;2023-08-12T11:55:13;8.23;;;1.90;;
65558;SDS011;52203;51.998;5.140;2023-08-12T11:57:39;5.72;;;1.80;;
65558;SDS011;52203;51.998;5.140;2023-08-12T12:00:06;7.88;;;2.13;;
65558;SDS011;52203;51.998;5.140;2023-08-12T12:02:38;7.07;;;2.00;;
65558;SDS011;52203;51.998;5.140;2023-08-12T12:05:09;6.57;;;1.70;;
65558;SDS011;52203;51.998;5.140;2023-08-12T12:07:36;6.80;;;1.98;;
65558;SDS011;52203;51.998;5.140;2023-08-12T12:10:01;4.47;;;1.50;;
65558;SDS011;52203;51.998;5.140;2023-08-12T12:12:27;4.50;;;1.83;;
65558;SDS011;52203;51.998;5.140;2023-08-12T12:14:53;6.60;;;1.77;;
65558;SDS011;52203;51.998;5.140;2023-08-12T12:17:22;6.32;;;2.05;;
65558;SDS011;52203;51.998;5.140;2023-08-12T12:19:52;7.10;;;1.75;;
65558;SDS011;52203;51.998;5.140;2023-08-12T12:22:20;5.47;;;1.98;;
65558;SDS011;52203;51.998;5.140;2023-08-12T12:24:45;7.95;;;1.90;;
65558;SDS011;52203;51.998;5.140;2023-08-12T12:27:11;6.65;;;1.90;;
65558;SDS011;52203;51.998;5.140;2023-08-12T12:29:38;6.38;;;1.80;;
65558;SDS011;52203;51.998;5.140;2023-08-12T12:32:04;6.80;;;2.28;;
65558;SDS011;52203;51.998;5.140;2023-08-12T12:34:29;5.13;;;1.90;;
65558;SDS011;52203;51.998;5.140;2023-08-12T12:36:55;7.05;;;2.33;;
65558;SDS011;52203;51.998;5.140;2023-08-12T12:39:21;7.53;;;2.15;;
65558;SDS011;52203;51.998;5.140;2023-08-12T12:41:48;4.68;;;1.58;;
65558;SDS011;52203;51.998;5.140;2023-08-12T12:44:14;6.15;;;1.90;;
65558;SDS011;52203;51.998;5.140;2023-08-12T12:46:39;6.82;;;2.03;;
65558;SDS011;52203;51.998;5.140;2023-08-12T12:49:05;6.57;;;2.00;;
65558;SDS011;52203;51.998;5.140;2023-08-12T12:51:31;8.13;;;2.00;;
65558;SDS011;52203;51.998;5.140;2023-08-12T12:53:56;7.63;;;1.92;;
65558;SDS011;52203;51.998;5.140;2023-08-12T12:56:22;7.93;;;2.15;;
65558;SDS011;52203;51.998;5.140;2023-08-12T12:58:48;9.43;;;1.88;;
65558;SDS011;52203;51.998;5.140;2023-08-12T13:01:13;9.77;;;4.38;;
65558;SDS011;52203;51.998;5.140;2023-08-12T13:03:39;8.73;;;3.10;;
65558;SDS011;52203;51.998;5.140;2023-08-12T13:06:05;7.93;;;2.50;;
65558;SDS011;52203;51.998;5.140;2023-08-12T13:08:30;11.43;;;2.63;;
65558;SDS011;52203;51.998;5.140;2023-08-12T13:10:56;11.73;;;2.70;;
65558;SDS011;52203;51.998;5.140;2023-08-12T13:13:22;7.35;;;1.80;;
65558;SDS011;52203;51.998;5.140;2023-08-12T13:15:48;7.43;;;2.42;;
65558;SDS011;52203;51.998;5.140;2023-08-12T13:18:13;10.57;;;2.75;;
65558;SDS011;52203;51.998;5.140;2023-08-12T13:20:39;7.82;;;2.22;;
65558;SDS011;52203;51.998;5.140;2023-08-12T13:23:05;5.85;;;2.08;;
65558;SDS011;52203;51.998;5.140;2023-08-12T13:25:31;7.97;;;2.40;;
65558;SDS011;52203;51.998;5.140;2023-08-12T13:28:01;9.27;;;2.05;;
65558;SDS011;52203;51.998;5.140;2023-08-12T13:30:28;8.10;;;1.98;;
65558;SDS011;52203;51.998;5.140;2023-08-12T13:32:54;6.45;;;1.85;;
65558;SDS011;52203;51.998;5.140;2023-08-12T13:35:20;7.45;;;2.22;;
65558;SDS011;52203;51.998;5.140;2023-08-12T13:37:46;7.10;;;2.22;;
65558;SDS011;52203;51.998;5.140;2023-08-12T13:40:12;7.80;;;1.80;;
65558;SDS011;52203;51.998;5.140;2023-08-12T13:42:39;8.75;;;1.98;;
65558;SDS011;52203;51.998;5.140;2023-08-12T13:45:05;7.18;;;1.83;;
65558;SDS011;52203;51.998;5.140;2023-08-12T13:47:33;7.35;;;2.05;;
65558;SDS011;52203;51.998;5.140;2023-08-12T13:49:59;7.57;;;2.33;;
65558;SDS011;52203;51.998;5.140;2023-08-12T13:52:25;6.65;;;2.03;;
65558;SDS011;52203;51.998;5.140;2023-08-12T13:54:50;5.88;;;1.90;;
65558;SDS011;52203;51.998;5.140;2023-08-12T13:57:16;9.85;;;2.00;;
65558;SDS011;52203;51.998;5.140;2023-08-12T13:59:41;6.55;;;1.92;;
65558;SDS011;52203;51.998;5.140;2023-08-12T14:02:09;7.97;;;1.85;;
65558;SDS011;52203;51.998;5.140;2023-08-12T14:04:37;8.15;;;2.35;;
65558;SDS011;52203;51.998;5.140;2023-08-12T14:07:03;7.40;;;1.92;;
65558;SDS011;52203;51.998;5.140;2023-08-12T14:09:29;7.50;;;2.22;;
65558;SDS011;52203;51.998;5.140;2023-08-12T14:11:55;7.32;;;1.88;;
65558;SDS011;52203;51.998;5.140;2023-08-12T14:14:21;8.00;;;2.05;;
65558;SDS011;52203;51.998;5.140;2023-08-12T14:16:46;9.88;;;2.30;;
65558;SDS011;52203;51.998;5.140;2023-08-12T14:19:12;8.98;;;2.33;;
65558;SDS011;52203;51.998;5.140;2023-08-12T14:21:41;6.80;;;1.75;;
65558;SDS011;52203;51.998;5.140;2023-08-12T14:24:10;6.90;;;2.00;;
65558;SDS011;52203;51.998;5.140;2023-08-12T14:26:35;9.60;;;2.08;;
65558;SDS011;52203;51.998;5.140;2023-08-12T14:29:01;6.78;;;1.95;;
65558;SDS011;52203;51.998;5.140;2023-08-12T14:31:27;8.63;;;2.40;;
65558;SDS011;52203;51.998;5.140;2023-08-12T14:33:52;7.35;;;2.00;;
65558;SDS011;52203;51.998;5.140;2023-08-12T14:36:18;9.07;;;2.47;;
65558;SDS011;52203;51.998;5.140;2023-08-12T14:38:43;7.63;;;2.00;;
65558;SDS011;52203;51.998;5.140;2023-08-12T14:41:09;9.13;;;1.98;;
65558;SDS011;52203;51.998;5.140;2023-08-12T14:43:35;12.15;;;2.72;;
65558;SDS011;52203;51.998;5.140;2023-08-12T14:46:02;7.93;;;2.05;;
65558;SDS011;52203;51.998;5.140;2023-08-12T14:48:28;8.18;;;2.05;;
65558;SDS011;52203;51.998;5.140;2023-08-12T14:50:56;6.90;;;1.98;;